createdAt,value
2023-08-18T00:00:14.832Z,2.63
2023-08-18T00:02:44.309Z,2.38
2023-08-18T00:05:11.232Z,2.95
2023-08-18T00:07:38.206Z,2.60
2023-08-18T00:10:05.505Z,2.63
2023-08-18T00:12:33.641Z,2.60
2023-08-18T00:15:00.908Z,2.83
2023-08-18T00:17:28.158Z,2.53
2023-08-18T00:19:55.253Z,2.75
2023-08-18T00:22:22.157Z,2.78
2023-08-18T00:24:49.237Z,2.75
2023-08-18T00:27:16.162Z,2.78
2023-08-18T00:29:43.242Z,2.80
2023-08-18T00:32:10.516Z,2.38
2023-08-18T00:34:38.825Z,2.72
2023-08-18T00:37:05.695Z,2.40
2023-08-18T00:39:32.593Z,2.65
2023-08-18T00:41:59.524Z,2.53
2023-08-18T00:44:27.133Z,2.40
2023-08-18T00:46:54.918Z,2.55
2023-08-18T00:49:22.983Z,2.53
2023-08-18T00:51:50.285Z,2.20
2023-08-18T00:54:18.121Z,2.42
2023-08-18T00:56:48.260Z,2.58
2023-08-18T00:59:15.373Z,2.35
2023-08-18T01:01:43.878Z,2.58
2023-08-18T01:04:13.807Z,2.70
2023-08-18T01:06:41.469Z,2.40
2023-08-18T01:09:08.792Z,2.42
2023-08-18T01:12:15.885Z,2.22
2023-08-18T01:15:08.979Z,2.60
2023-08-18T01:17:46.308Z,2.28
2023-08-18T01:20:14.549Z,2.75
2023-08-18T01:22:42.866Z,2.47
2023-08-18T01:25:09.820Z,2.20
2023-08-18T01:27:36.732Z,2.38
2023-08-18T01:30:05.797Z,2.30
2023-08-18T01:32:47.596Z,2.42
2023-08-18T01:35:17.224Z,2.40
2023-08-18T01:37:45.770Z,2.40
2023-08-18T01:40:17.324Z,2.78
2023-08-18T01:45:12.654Z,2.75
2023-08-18T01:47:39.714Z,2.15
2023-08-18T01:50:07.133Z,2.63
2023-08-18T01:52:34.075Z,2.15
2023-08-18T01:55:02.245Z,2.50
2023-08-18T01:57:29.409Z,2.38
2023-08-18T01:59:57.657Z,2.17
2023-08-18T02:02:24.620Z,2.38
2023-08-18T02:04:51.506Z,2.30
2023-08-18T02:07:18.438Z,2.40
2023-08-18T02:09:45.362Z,2.45
2023-08-18T02:12:12.257Z,2.55
2023-08-18T02:14:39.077Z,2.25
2023-08-18T02:17:06.142Z,2.00
2023-08-18T02:19:33.038Z,2.55
2023-08-18T02:21:59.924Z,2.45
2023-08-18T02:24:26.877Z,2.10
2023-08-18T02:26:53.868Z,2.45
2023-08-18T02:29:20.909Z,2.40
2023-08-18T02:31:48.705Z,2.53
2023-08-18T02:34:16.425Z,2.40
2023-08-18T02:36:43.319Z,2.22
2023-08-18T02:39:10.397Z,2.60
2023-08-18T02:41:37.346Z,2.33
2023-08-18T02:44:04.722Z,2.25
2023-08-18T02:46:31.597Z,2.22
2023-08-18T02:48:58.443Z,2.40
2023-08-18T02:51:25.316Z,2.33
2023-08-18T02:53:52.194Z,2.50
2023-08-18T02:56:19.171Z,2.15
2023-08-18T02:58:46.075Z,2.42
2023-08-18T03:01:13.286Z,1.95
2023-08-18T03:03:40.323Z,2.30
2023-08-18T03:06:09.963Z,2.25
2023-08-18T03:08:38.008Z,2.53
2023-08-18T03:11:06.153Z,2.38
2023-08-18T03:13:33.655Z,2.30
2023-08-18T03:16:01.291Z,2.45
2023-08-18T03:18:28.466Z,2.30
2023-08-18T03:21:01.564Z,2.28
2023-08-18T03:23:30.630Z,2.20
2023-08-18T03:26:06.050Z,2.20
2023-08-18T03:28:37.381Z,2.17
2023-08-18T03:31:09.074Z,2.40
2023-08-18T03:33:37.298Z,2.15
2023-08-18T03:38:34.642Z,2.00
2023-08-18T03:41:08.095Z,2.17
2023-08-18T03:43:36.072Z,2.25
2023-08-18T03:46:30.026Z,2.13
2023-08-18T03:48:59.600Z,2.40
2023-08-18T03:51:28.162Z,2.25
2023-08-18T03:53:55.788Z,2.45
2023-08-18T03:56:22.828Z,2.22
2023-08-18T03:58:49.752Z,2.20
2023-08-18T04:01:17.172Z,2.30
2023-08-18T04:03:46.310Z,2.28
2023-08-18T04:06:14.073Z,2.22
2023-08-18T04:08:44.356Z,2.35
2023-08-18T04:11:12.857Z,2.17
2023-08-18T04:13:40.536Z,2.20
2023-08-18T04:16:07.957Z,2.15
2023-08-18T04:18:35.599Z,2.22
2023-08-18T04:21:04.010Z,2.00
2023-08-18T04:23:31.394Z,2.10
2023-08-18T04:25:58.414Z,2.10
2023-08-18T04:28:25.390Z,2.20
2023-08-18T04:30:52.587Z,2.05
2023-08-18T04:33:36.910Z,2.42
2023-08-18T04:36:05.185Z,2.30
2023-08-18T04:38:33.151Z,2.28
2023-08-18T04:41:04.159Z,2.15
2023-08-18T04:43:32.814Z,2.22
2023-08-18T04:46:00.235Z,2.00
2023-08-18T04:48:27.884Z,2.15
2023-08-18T04:50:55.049Z,2.28
2023-08-18T04:53:21.980Z,2.30
2023-08-18T04:55:48.978Z,2.33
2023-08-18T04:58:16.570Z,2.40
2023-08-18T05:00:44.921Z,2.20
2023-08-18T05:03:13.079Z,2.13
2023-08-18T05:06:10.642Z,2.50
2023-08-18T05:08:41.848Z,2.20
2023-08-18T05:11:11.812Z,2.15
2023-08-18T05:13:42.006Z,2.25
2023-08-18T05:16:09.363Z,2.72
2023-08-18T05:18:37.482Z,2.40
2023-08-18T05:21:04.636Z,2.47
2023-08-18T05:23:32.280Z,2.40
2023-08-18T05:26:01.104Z,2.40
2023-08-18T05:28:33.923Z,2.60
2023-08-18T05:31:01.509Z,2.38
2023-08-18T05:33:29.029Z,2.30
2023-08-18T05:36:00.351Z,2.33
2023-08-18T05:38:28.502Z,2.55
2023-08-18T05:41:14.357Z,2.60
2023-08-18T05:43:42.506Z,2.75
2023-08-18T05:46:10.097Z,2.55
2023-08-18T05:48:37.484Z,2.50
2023-08-18T05:51:04.932Z,2.90
2023-08-18T05:53:32.434Z,2.47
2023-08-18T05:55:59.845Z,2.60
2023-08-18T05:58:27.494Z,2.78
2023-08-18T06:00:54.550Z,2.65
2023-08-18T06:03:22.072Z,2.40
2023-08-18T06:05:50.304Z,2.53
2023-08-18T06:08:17.604Z,2.90
2023-08-18T06:10:44.698Z,2.33
2023-08-18T06:13:11.628Z,2.83
2023-08-18T06:15:39.501Z,3.20
2023-08-18T06:18:06.828Z,3.00
2023-08-18T06:20:33.758Z,2.88
2023-08-18T06:23:00.683Z,2.83
2023-08-18T06:25:27.973Z,2.60
2023-08-18T06:27:55.201Z,2.92
2023-08-18T06:30:22.132Z,2.75
2023-08-18T06:32:49.207Z,2.60
2023-08-18T06:35:16.284Z,2.55
2023-08-18T06:37:43.243Z,2.67
2023-08-18T06:40:10.672Z,2.95
2023-08-18T06:42:37.564Z,2.90
2023-08-18T06:45:06.555Z,2.90
2023-08-18T06:47:35.807Z,2.88
2023-08-18T06:50:06.937Z,2.90
2023-08-18T06:52:34.877Z,2.85
2023-08-18T06:55:03.144Z,2.92
2023-08-18T06:57:30.516Z,2.50
2023-08-18T06:59:57.388Z,2.80
2023-08-18T07:02:24.497Z,2.85
2023-08-18T07:04:52.826Z,3.15
2023-08-18T07:07:19.691Z,2.80
2023-08-18T07:09:46.577Z,2.85
2023-08-18T07:12:13.602Z,3.03
2023-08-18T07:14:40.545Z,2.80
2023-08-18T07:17:07.446Z,3.10
2023-08-18T07:19:34.361Z,3.15
2023-08-18T07:22:01.380Z,3.58
2023-08-18T07:24:29.830Z,3.67
2023-08-18T07:26:56.980Z,4.00
2023-08-18T07:29:24.275Z,4.00
2023-08-18T07:31:51.269Z,4.05
2023-08-18T07:34:18.232Z,5.25
2023-08-18T07:36:45.153Z,6.93
2023-08-18T07:39:12.022Z,7.47
2023-08-18T07:41:42.224Z,7.72
2023-08-18T07:44:09.708Z,7.40
2023-08-18T07:46:37.136Z,7.43
2023-08-18T07:49:05.248Z,8.20
2023-08-18T07:51:32.736Z,7.38
2023-08-18T07:53:59.627Z,8.00
2023-08-18T07:56:26.537Z,7.30
2023-08-18T07:58:55.849Z,7.97
2023-08-18T08:01:24.551Z,7.60
2023-08-18T08:03:51.588Z,7.10
2023-08-18T08:06:18.600Z,6.90
2023-08-18T08:08:45.543Z,7.65
2023-08-18T08:11:13.813Z,7.15
2023-08-18T08:13:41.193Z,7.43
2023-08-18T08:16:08.787Z,6.72
2023-08-18T08:18:35.773Z,6.97
2023-08-18T08:21:02.779Z,6.90
2023-08-18T08:23:29.715Z,6.70
2023-08-18T08:25:56.719Z,6.57
2023-08-18T08:28:23.778Z,6.45
2023-08-18T08:30:53.635Z,6.65
2023-08-18T08:33:20.651Z,6.25
2023-08-18T08:35:47.631Z,6.53
2023-08-18T08:38:14.564Z,6.13
2023-08-18T08:40:43.303Z,6.28
2023-08-18T08:43:10.580Z,6.32
2023-08-18T08:45:40.403Z,6.68
2023-08-18T08:48:11.961Z,6.03
2023-08-18T08:53:15.004Z,5.93
2023-08-18T08:55:45.768Z,5.82
2023-08-18T08:58:14.889Z,6.22
2023-08-18T09:00:43.266Z,5.82
2023-08-18T09:03:10.921Z,5.57
2023-08-18T09:05:37.885Z,6.18
2023-08-18T09:08:05.383Z,5.80
2023-08-18T09:10:34.276Z,5.93
2023-08-18T09:13:01.535Z,5.80
2023-08-18T09:15:29.001Z,5.50
2023-08-18T09:17:58.049Z,6.20
2023-08-18T09:20:26.593Z,5.70
2023-08-18T09:22:58.349Z,5.70
2023-08-18T09:25:28.308Z,5.45
2023-08-18T09:27:55.948Z,5.88
2023-08-18T09:30:25.366Z,5.50
2023-08-18T09:32:53.107Z,5.05
2023-08-18T09:35:23.299Z,5.15
2023-08-18T09:37:58.400Z,5.22
2023-08-18T09:40:27.135Z,5.03
2023-08-18T09:42:54.124Z,5.47
2023-08-18T09:45:27.643Z,5.70
2023-08-18T09:47:57.540Z,5.50
2023-08-18T09:50:32.131Z,5.40
2023-08-18T09:53:01.908Z,5.25
2023-08-18T09:55:43.622Z,5.22
2023-08-18T09:58:28.868Z,5.07
2023-08-18T10:00:58.038Z,4.97
2023-08-18T10:03:29.560Z,6.03
2023-08-18T10:05:57.286Z,5.00
2023-08-18T10:08:27.005Z,5.07
2023-08-18T10:10:53.920Z,6.00
2023-08-18T10:13:21.807Z,5.20
2023-08-18T10:15:49.683Z,5.35
2023-08-18T10:18:18.178Z,19.15
2023-08-18T10:20:53.798Z,23.25
2023-08-18T10:23:24.566Z,73.43
2023-08-18T10:25:53.302Z,42.13
2023-08-18T10:28:22.200Z,57.80
2023-08-18T10:30:58.088Z,75.95
2023-08-18T10:33:38.790Z,88.63
2023-08-18T10:36:07.583Z,104.57
2023-08-18T10:38:37.335Z,106.28
2023-08-18T10:41:04.763Z,104.22
2023-08-18T10:43:54.491Z,101.57
2023-08-18T10:46:25.563Z,94.68
2023-08-18T10:48:52.578Z,90.13
2023-08-18T10:51:19.572Z,86.38
2023-08-18T10:53:46.684Z,77.55
2023-08-18T10:56:13.672Z,77.05
2023-08-18T10:58:40.542Z,67.85
2023-08-18T11:01:10.336Z,62.25
2023-08-18T11:03:37.541Z,60.65
2023-08-18T11:06:04.538Z,58.17
2023-08-18T11:08:31.774Z,54.10
2023-08-18T11:10:58.665Z,54.75
2023-08-18T11:13:29.850Z,52.38
2023-08-18T11:15:58.573Z,52.92
2023-08-18T11:18:28.774Z,50.55
2023-08-18T11:20:56.806Z,49.40
2023-08-18T11:23:23.780Z,45.22
2023-08-18T11:25:51.830Z,44.72
2023-08-18T11:28:19.463Z,43.90
2023-08-18T11:30:46.451Z,43.42
2023-08-18T11:33:13.565Z,43.78
2023-08-18T11:35:40.504Z,39.70
2023-08-18T11:38:09.529Z,37.17
2023-08-18T11:40:39.320Z,38.05
2023-08-18T11:43:13.720Z,36.90
2023-08-18T11:45:41.292Z,35.40
2023-08-18T11:48:09.048Z,32.72
2023-08-18T11:50:38.760Z,32.00
2023-08-18T11:53:08.338Z,33.25
2023-08-18T11:55:41.470Z,28.77
2023-08-18T11:58:14.238Z,30.20
2023-08-18T12:00:43.470Z,31.27
2023-08-18T12:03:30.507Z,29.95
2023-08-18T12:05:59.732Z,26.92
2023-08-18T12:08:30.241Z,27.40
2023-08-18T12:10:58.923Z,27.67
2023-08-18T12:13:31.641Z,25.58
2023-08-18T12:15:58.861Z,26.75
2023-08-18T12:18:25.822Z,26.45
2023-08-18T12:20:52.776Z,25.42
2023-08-18T12:23:19.927Z,25.42
2023-08-18T12:25:46.865Z,25.33
2023-08-18T12:28:14.357Z,24.63
2023-08-18T12:30:41.217Z,24.63
2023-08-18T12:33:08.183Z,24.77
2023-08-18T12:35:35.148Z,22.27
2023-08-18T12:38:02.566Z,25.45
2023-08-18T12:40:29.469Z,23.67
2023-08-18T12:42:57.324Z,22.88
2023-08-18T12:45:24.357Z,21.35
2023-08-18T12:47:51.324Z,21.52
2023-08-18T12:50:18.353Z,22.48
2023-08-18T12:52:45.309Z,22.02
2023-08-18T12:55:12.430Z,20.60
2023-08-18T12:57:39.353Z,21.65
2023-08-18T13:00:07.366Z,20.00
2023-08-18T13:02:34.474Z,19.20
2023-08-18T13:05:02.055Z,19.70
2023-08-18T13:07:29.369Z,18.98
2023-08-18T13:09:56.247Z,19.30
2023-08-18T13:12:23.622Z,17.10
2023-08-18T13:14:50.716Z,17.10
2023-08-18T13:17:17.664Z,16.23
2023-08-18T13:19:48.923Z,16.35
2023-08-18T13:22:16.419Z,16.17
2023-08-18T13:24:43.686Z,16.30
2023-08-18T13:27:10.964Z,15.60
2023-08-18T13:29:38.385Z,16.58
2023-08-18T13:32:06.019Z,15.73
2023-08-18T13:34:32.954Z,14.63
2023-08-18T13:36:59.935Z,14.55
2023-08-18T13:39:26.923Z,14.93
2023-08-18T13:41:53.818Z,13.80
2023-08-18T13:44:20.824Z,13.68
2023-08-18T13:46:47.737Z,13.35
2023-08-18T13:49:14.700Z,13.32
2023-08-18T13:51:41.944Z,12.30
2023-08-18T13:54:13.333Z,12.13
2023-08-18T13:56:43.440Z,11.20
2023-08-18T13:59:11.865Z,11.35
2023-08-18T14:01:38.967Z,11.20
2023-08-18T14:04:06.313Z,11.20
2023-08-18T14:06:33.235Z,11.57
2023-08-18T14:09:01.942Z,11.27
2023-08-18T14:11:29.119Z,11.38
2023-08-18T14:13:56.315Z,10.68
2023-08-18T14:16:23.290Z,10.98
2023-08-18T14:18:50.558Z,10.65
2023-08-18T14:21:17.432Z,10.07
2023-08-18T14:23:44.359Z,11.30
2023-08-18T14:26:11.319Z,10.32
2023-08-18T14:28:38.697Z,10.48
2023-08-18T14:31:10.762Z,9.70
2023-08-18T14:33:46.164Z,10.30
2023-08-18T14:36:16.400Z,9.95
2023-08-18T14:38:44.876Z,9.80
2023-08-18T14:41:12.200Z,10.77
2023-08-18T14:43:40.274Z,10.05
2023-08-18T14:46:07.473Z,9.63
2023-08-18T14:48:34.825Z,10.27
2023-08-18T14:51:02.261Z,9.68
2023-08-18T14:53:29.259Z,9.82
2023-08-18T14:55:56.243Z,10.27
2023-08-18T14:58:28.377Z,10.10
2023-08-18T15:00:55.965Z,9.68
2023-08-18T15:03:23.168Z,9.85
2023-08-18T15:05:50.791Z,9.80
2023-08-18T15:08:18.060Z,9.05
2023-08-18T15:10:46.673Z,9.35
2023-08-18T15:13:13.823Z,8.65
2023-08-18T15:15:40.828Z,8.73
2023-08-18T15:18:07.940Z,9.85
2023-08-18T15:20:34.886Z,8.85
2023-08-18T15:23:01.995Z,8.25
2023-08-18T15:25:30.691Z,9.40
2023-08-18T15:27:57.662Z,9.73
2023-08-18T15:30:24.554Z,9.57
2023-08-18T15:32:51.465Z,9.45
2023-08-18T15:35:18.468Z,10.35
2023-08-18T15:37:45.463Z,9.20
2023-08-18T15:40:12.729Z,9.02
2023-08-18T15:42:39.715Z,10.25
2023-08-18T15:45:07.568Z,10.32
2023-08-18T15:47:34.602Z,10.10
2023-08-18T15:50:01.935Z,8.98
2023-08-18T15:52:28.770Z,9.38
2023-08-18T15:54:55.662Z,10.25
2023-08-18T15:57:22.647Z,10.48
2023-08-18T15:59:49.543Z,9.13
2023-08-18T16:02:16.492Z,9.77
2023-08-18T16:04:43.444Z,10.60
2023-08-18T16:07:10.450Z,10.40
2023-08-18T16:09:37.381Z,10.60
2023-08-18T16:12:04.760Z,10.20
2023-08-18T16:17:01.634Z,10.40
2023-08-18T16:19:29.593Z,10.27
2023-08-18T16:21:56.616Z,10.73
2023-08-18T16:24:23.625Z,10.10
2023-08-18T16:26:52.514Z,11.40
2023-08-18T16:29:19.708Z,10.60
2023-08-18T16:31:46.801Z,10.40
2023-08-18T16:34:13.733Z,11.57
2023-08-18T16:36:40.669Z,11.70
2023-08-18T16:39:07.534Z,10.43
2023-08-18T16:41:34.483Z,11.02
2023-08-18T16:44:01.505Z,11.27
2023-08-18T16:46:28.432Z,10.55
2023-08-18T16:48:55.910Z,11.55
2023-08-18T16:51:22.870Z,11.50
2023-08-18T16:53:49.819Z,11.00
2023-08-18T16:56:16.827Z,11.20
2023-08-18T16:58:43.779Z,10.70
2023-08-18T17:01:10.836Z,11.00
2023-08-18T17:03:37.889Z,10.95
2023-08-18T17:06:04.908Z,11.77
2023-08-18T17:08:31.913Z,11.45
2023-08-18T17:11:00.354Z,11.43
2023-08-18T17:13:27.736Z,11.48
2023-08-18T17:15:54.775Z,10.63
2023-08-18T17:18:24.604Z,10.85
2023-08-18T17:20:53.150Z,11.65
2023-08-18T17:23:21.445Z,11.07
2023-08-18T17:25:50.059Z,12.07
2023-08-18T17:28:17.703Z,11.30
2023-08-18T17:30:45.977Z,12.25
2023-08-18T17:33:14.496Z,11.57
2023-08-18T17:35:44.803Z,12.75
2023-08-18T17:38:11.894Z,13.13
2023-08-18T17:40:39.769Z,12.50
2023-08-18T17:43:06.739Z,12.25
2023-08-18T17:45:36.115Z,12.02
2023-08-18T17:48:03.413Z,11.48
2023-08-18T17:50:30.382Z,13.20
2023-08-18T17:52:57.975Z,12.38
2023-08-18T17:55:25.647Z,10.68
2023-08-18T17:57:52.641Z,11.38
2023-08-18T18:00:19.992Z,11.88
2023-08-18T18:02:47.402Z,12.70
2023-08-18T18:05:19.460Z,13.27
2023-08-18T18:07:46.407Z,13.50
2023-08-18T18:10:13.433Z,13.38
2023-08-18T18:12:40.910Z,12.68
2023-08-18T18:15:08.791Z,14.20
2023-08-18T18:17:36.936Z,12.30
2023-08-18T18:20:04.804Z,12.10
2023-08-18T18:22:32.629Z,11.32
2023-08-18T18:24:59.591Z,12.05
2023-08-18T18:27:26.531Z,11.30
2023-08-18T18:29:53.802Z,12.88
2023-08-18T18:32:20.780Z,11.80
2023-08-18T18:34:47.751Z,11.80
2023-08-18T18:37:14.626Z,11.63
2023-08-18T18:39:42.030Z,11.65
2023-08-18T18:42:09.548Z,10.35
2023-08-18T18:44:37.286Z,10.10
2023-08-18T18:47:05.068Z,9.90
2023-08-18T18:49:32.096Z,10.52
2023-08-18T18:51:59.084Z,11.25
2023-08-18T18:54:26.211Z,9.85
2023-08-18T18:56:53.153Z,12.35
2023-08-18T18:59:20.291Z,10.32
2023-08-18T19:01:47.185Z,10.40
2023-08-18T19:04:14.222Z,11.48
2023-08-18T19:06:41.908Z,11.93
2023-08-18T19:09:10.868Z,11.88
2023-08-18T19:11:37.767Z,10.40
2023-08-18T19:14:04.759Z,10.13
2023-08-18T19:16:31.646Z,10.35
2023-08-18T19:18:58.575Z,9.18
2023-08-18T19:21:28.750Z,10.13
2023-08-18T19:23:55.994Z,9.68
2023-08-18T19:26:23.533Z,10.27
2023-08-18T19:28:55.324Z,10.23
2023-08-18T19:31:23.026Z,9.70
2023-08-18T19:33:50.020Z,10.27
2023-08-18T19:36:19.999Z,9.45
2023-08-18T19:38:47.566Z,9.90
2023-08-18T19:41:14.717Z,9.65
2023-08-18T19:43:41.729Z,8.93
2023-08-18T19:46:08.827Z,9.48
2023-08-18T19:48:36.079Z,9.35
2023-08-18T19:51:04.136Z,9.45
2023-08-18T19:53:31.205Z,9.73
2023-08-18T19:55:58.239Z,10.30
2023-08-18T19:58:25.774Z,10.18
2023-08-18T20:00:52.765Z,10.30
2023-08-18T20:03:19.748Z,9.98
2023-08-18T20:05:46.756Z,9.52
2023-08-18T20:08:13.928Z,10.52
2023-08-18T20:10:42.177Z,9.77
2023-08-18T20:13:09.108Z,10.65
2023-08-18T20:15:36.069Z,10.18
2023-08-18T20:18:03.469Z,10.38
2023-08-18T20:20:30.579Z,10.57
2023-08-18T20:22:58.859Z,10.98
2023-08-18T20:25:27.020Z,11.50
2023-08-18T20:27:54.399Z,11.68
2023-08-18T20:30:23.202Z,10.30
2023-08-18T20:32:55.126Z,11.23
2023-08-18T20:35:25.819Z,11.95
2023-08-18T20:37:53.556Z,11.65
2023-08-18T20:40:20.886Z,11.80
2023-08-18T20:42:47.748Z,11.05
2023-08-18T20:45:14.686Z,11.48
2023-08-18T20:47:41.647Z,12.73
2023-08-18T20:50:11.479Z,12.38
2023-08-18T20:52:38.768Z,12.70
2023-08-18T20:55:08.338Z,12.40
2023-08-18T20:57:35.556Z,12.38
2023-08-18T21:00:03.939Z,12.82
2023-08-18T21:02:31.579Z,12.32
2023-08-18T21:05:00.454Z,12.98
2023-08-18T21:07:27.646Z,13.32
2023-08-18T21:09:54.639Z,12.73
2023-08-18T21:12:21.767Z,12.65
2023-08-18T21:14:48.639Z,12.82
2023-08-18T21:17:15.780Z,13.82
2023-08-18T21:19:42.749Z,13.20
2023-08-18T21:22:09.742Z,14.13
2023-08-18T21:24:36.726Z,14.00
2023-08-18T21:27:04.037Z,13.20
2023-08-18T21:29:31.072Z,12.45
2023-08-18T21:31:58.066Z,11.50
2023-08-18T21:34:25.223Z,10.77
2023-08-18T21:36:52.122Z,11.00
2023-08-18T21:39:19.441Z,10.57
2023-08-18T21:41:46.494Z,11.68
2023-08-18T21:44:13.438Z,10.32
2023-08-18T21:46:40.331Z,11.07
2023-08-18T21:49:07.754Z,10.65
2023-08-18T21:51:34.819Z,11.02
2023-08-18T21:54:01.929Z,10.93
2023-08-18T21:56:28.974Z,10.85
2023-08-18T21:58:55.918Z,9.98
2023-08-18T22:01:22.941Z,10.38
2023-08-18T22:03:51.834Z,10.63
2023-08-18T22:06:18.952Z,10.75
2023-08-18T22:08:45.922Z,11.07
2023-08-18T22:11:13.965Z,10.43
2023-08-18T22:13:41.523Z,10.52
2023-08-18T22:16:08.594Z,10.23
2023-08-18T22:18:37.295Z,10.25
2023-08-18T22:21:04.591Z,10.68
2023-08-18T22:23:34.781Z,10.55
2023-08-18T22:26:01.899Z,10.43
2023-08-18T22:28:29.396Z,10.57
2023-08-18T22:30:56.564Z,10.10
2023-08-18T22:33:24.884Z,10.02
2023-08-18T22:35:58.968Z,10.88
2023-08-18T22:38:26.067Z,10.57
2023-08-18T22:41:04.127Z,10.27
2023-08-18T22:43:31.931Z,9.95
2023-08-18T22:46:01.187Z,9.60
2023-08-18T22:48:28.219Z,9.80
2023-08-18T22:50:55.058Z,9.88
2023-08-18T22:53:22.005Z,10.35
2023-08-18T22:55:49.093Z,10.40
2023-08-18T22:58:16.062Z,9.98
2023-08-18T23:00:43.216Z,9.68
2023-08-18T23:03:10.112Z,10.02
2023-08-18T23:05:37.153Z,10.20
2023-08-18T23:08:04.501Z,9.10
2023-08-18T23:10:31.393Z,9.43
2023-08-18T23:12:58.319Z,10.32
2023-08-18T23:15:27.028Z,9.00
2023-08-18T23:17:54.108Z,10.23
2023-08-18T23:20:21.127Z,10.45
2023-08-18T23:22:48.013Z,10.15
2023-08-18T23:25:15.030Z,9.57
2023-08-18T23:27:42.015Z,9.77
2023-08-18T23:30:10.679Z,9.38
2023-08-18T23:32:37.611Z,9.32
2023-08-18T23:35:05.356Z,9.35
2023-08-18T23:37:32.426Z,9.60
2023-08-18T23:39:59.750Z,10.25
2023-08-18T23:42:26.624Z,9.80
2023-08-18T23:44:53.503Z,9.43
2023-08-18T23:47:20.456Z,9.60
2023-08-18T23:49:47.329Z,9.70
2023-08-18T23:52:14.238Z,9.57
2023-08-18T23:54:41.167Z,10.15
2023-08-18T23:57:08.041Z,9.05
2023-08-18T23:59:34.963Z,10.30
